Terminal Aerodrome Forecast
Issued by NWS Cleveland, OH

Home | Current Version | Previous Version | Graphics & Text | Print | Product List | Glossary On
Versions: 1 2 3 4 5 6 7 8 9 10 11 12 13 14 15 16 17 18 19 20 21 22 23 24 25 26
163
FTUS41 KCLE 200536
TAFMFD
TAF
KMFD 200536Z 2006/2106 18004KT P6SM SCT022 BKN200
      TEMPO 2009/2012 5SM BR
     FM201200 18009KT P6SM VCSH BKN050
     FM201500 18009KT P6SM BKN040
     FM202000 18008KT 4SM SHRA VCTS BKN030CB
     FM202300 14004KT 5SM -SHRA BR OVC006=

USA.gov is the U.S. government's official web portal to all federal, state and local government web resources and services.